Time;durP1;ratioP1;P1;durP2;ratioP2;P2;SDS_P1;SDS_P2;PMS_P1;PMS_P2;Temp;Humidity;BMP_temperature;BMP_pressure;BME280_temperature;BME280_humidity;BME280_pressure;Samples;Min_cycle;Max_cycle;Signal;HPM_P1;HPM_P2
2021/11/08 03:47:18;;;;;;;9.90;7.00;;;10.40;93.80;;;;;;5043451;24;20061;-79
2021/11/08 03:49:44;;;;;;;9.27;7.13;;;10.40;93.80;;;;;;4869986;29;20046;-79
2021/11/08 03:52:09;;;;;;;10.60;6.90;;;10.30;93.80;;;;;;4870946;29;20331;-79
2021/11/08 03:54:36;;;;;;;13.43;6.97;;;10.30;93.80;;;;;;4855076;29;20034;-79
2021/11/08 03:57:02;;;;;;;10.32;7.90;;;10.40;93.70;;;;;;4839871;29;20025;-79
2021/11/08 03:59:28;;;;;;;10.67;7.80;;;10.40;93.80;;;;;;4870478;29;20178;-79
2021/11/08 04:01:53;;;;;;;12.15;8.15;;;10.40;93.80;;;;;;4851682;29;20041;-79
2021/11/08 04:04:19;;;;;;;11.43;8.10;;;10.40;93.90;;;;;;4848213;29;20057;-79
2021/11/08 04:06:48;;;;;;;12.70;8.43;;;10.40;94.00;;;;;;4866290;29;20036;-79
2021/11/08 04:09:15;;;;;;;11.70;8.18;;;10.30;94.10;;;;;;4870022;29;20086;-79
2021/11/08 04:11:42;;;;;;;12.70;8.38;;;10.30;94.20;;;;;;4839666;29;20033;-79
2021/11/08 04:14:10;;;;;;;13.52;9.48;;;10.30;94.30;;;;;;4854710;29;20036;-79
2021/11/08 04:16:36;;;;;;;;;;;10.20;94.40;;;;;;4840034;29;20251;-79
2021/11/08 04:19:03;;;;;;;12.60;8.88;;;10.20;94.70;;;;;;4885411;29;19908;-79
2021/11/08 04:21:30;;;;;;;17.00;10.52;;;10.10;94.70;;;;;;4869894;29;20085;-79
2021/11/08 04:23:56;;;;;;;11.40;8.35;;;10.10;94.80;;;;;;4854569;29;20033;-79
2021/11/08 04:26:27;;;;;;;16.80;9.63;;;10.10;94.80;;;;;;4854564;29;20042;-79
2021/11/08 04:29:00;;;;;;;16.08;10.15;;;10.10;94.80;;;;;;4878338;29;20033;-79
2021/11/08 04:31:27;;;;;;;14.40;10.07;;;10.10;94.90;;;;;;4869877;29;20029;-79
2021/11/08 04:33:57;;;;;;;14.68;9.80;;;10.10;95.00;;;;;;4869776;29;20259;-79
2021/11/08 04:39:16;;;;;;;15.68;10.07;;;10.10;94.90;;;;;;4869607;29;20066;-79
2021/11/08 04:42:04;;;;;;;17.00;10.82;;;10.10;95.00;;;;;;4869750;29;20025;-79
2021/11/08 05:30:12;;;;;;;21.20;13.35;;;9.70;96.20;;;;;;4855661;29;20045;-79
2021/11/08 05:32:41;;;;;;;30.20;13.15;;;9.70;96.20;;;;;;4843602;29;20290;-79
2021/11/08 05:35:10;;;;;;;22.75;13.25;;;9.70;96.30;;;;;;4849988;29;20034;-79
2021/11/08 05:37:38;;;;;;;21.48;13.95;;;9.70;96.40;;;;;;4819563;29;20215;-79
2021/11/08 05:40:15;;;;;;;20.42;12.55;;;9.70;96.50;;;;;;4805581;29;20101;-79
2021/11/08 05:42:42;;;;;;;21.83;13.10;;;9.60;96.60;;;;;;4855595;29;20029;-79
2021/11/08 05:45:11;;;;;;;20.30;13.10;;;9.70;96.50;;;;;;4826637;29;20077;-79
2021/11/08 05:47:38;;;;;;;18.77;12.38;;;9.60;96.40;;;;;;4841192;29;20127;-79
2021/11/08 05:50:06;;;;;;;18.88;12.80;;;9.70;96.30;;;;;;4840049;29;20061;-79
2021/11/08 05:52:32;;;;;;;18.17;12.40;;;9.60;96.30;;;;;;4837372;29;20354;-79
2021/11/08 05:54:58;;;;;;;18.70;11.32;;;9.60;96.30;;;;;;4864755;29;20065;-79
2021/11/08 06:51:40;;;;;;;16.95;11.07;;;9.60;95.70;;;;;;4860871;29;20052;-79
2021/11/08 06:54:06;;;;;;;21.33;10.83;;;9.60;95.60;;;;;;4838359;29;20029;-79
2021/11/08 06:56:43;;;;;;;24.15;12.07;;;9.70;95.50;;;;;;4839870;29;20390;-79
2021/11/08 06:59:10;;;;;;;;;;;9.80;95.40;;;;;;4865989;29;20068;-79
2021/11/08 07:01:36;;;;;;;17.20;10.60;;;9.90;95.20;;;;;;4864671;29;19915;-79
2021/11/08 07:04:02;;;;;;;19.02;11.55;;;9.90;95.20;;;;;;4854976;29;20029;-79
2021/11/08 07:06:28;;;;;;;18.08;11.15;;;10.10;95.10;;;;;;4864916;29;20389;-79
2021/11/08 07:08:55;;;;;;;18.42;11.48;;;10.20;95.00;;;;;;4870282;29;20325;-79
2021/11/08 07:11:20;;;;;;;18.30;10.30;;;10.20;94.60;;;;;;4850297;29;20333;-79
2021/11/08 07:13:46;;;;;;;15.63;10.48;;;10.30;94.50;;;;;;4854364;29;20021;-79
2021/11/08 07:16:12;;;;;;;21.90;9.90;;;10.30;94.50;;;;;;4854942;29;20036;-79
2021/11/08 07:18:38;;;;;;;16.48;9.60;;;10.30;94.30;;;;;;4854282;29;20034;-79
2021/11/08 07:21:04;;;;;;;15.98;9.45;;;10.30;94.20;;;;;;4833865;29;20314;-79
2021/11/08 07:23:30;;;;;;;18.00;8.98;;;10.30;94.10;;;;;;4854610;29;20037;-79
2021/11/08 07:25:56;;;;;;;17.27;8.60;;;10.30;94.20;;;;;;4854628;29;20021;-79
2021/11/08 07:28:22;;;;;;;20.70;8.95;;;10.30;94.20;;;;;;4850827;29;20026;-78
2021/11/08 07:30:48;;;;;;;18.85;8.50;;;10.30;94.20;;;;;;4833656;29;20053;-78
2021/11/08 07:33:16;;;;;;;16.77;8.68;;;10.50;94.00;;;;;;4851028;29;20037;-78
2021/11/08 07:35:43;;;;;;;18.15;9.18;;;10.60;93.70;;;;;;4855330;29;20230;-78
2021/11/08 07:38:09;;;;;;;;;;;10.50;93.10;;;;;;4835100;29;20390;-78
2021/11/08 07:40:35;;;;;;;14.32;8.13;;;10.50;92.90;;;;;;4835967;29;19912;-78
2021/11/08 07:43:01;;;;;;;14.07;9.00;;;10.50;93.20;;;;;;4864559;29;20274;-78
2021/11/08 07:45:27;;;;;;;18.20;8.18;;;10.60;93.00;;;;;;4849499;29;20046;-78
2021/11/08 07:47:54;;;;;;;21.02;8.02;;;10.60;92.70;;;;;;4882498;29;20030;-78
2021/11/08 07:50:20;;;;;;;;;;;10.70;92.70;;;;;;4854562;29;20332;-78
2021/11/08 07:52:46;;;;;;;18.10;8.43;;;10.70;92.30;;;;;;4865372;29;19944;-78
2021/11/08 07:55:12;;;;;;;19.02;8.90;;;10.60;92.30;;;;;;4853697;29;20071;-78
2021/11/08 07:57:39;;;;;;;19.00;9.07;;;10.60;92.40;;;;;;4867639;29;20026;-78
2021/11/08 08:00:07;;;;;;;15.23;7.32;;;10.70;92.30;;;;;;4866371;29;20032;-78
2021/11/08 08:02:42;;;;;;;17.17;8.85;;;10.70;92.10;;;;;;4857265;29;20037;-78
2021/11/08 08:05:08;;;;;;;15.63;8.65;;;10.80;92.00;;;;;;4869291;29;20045;-79
2021/11/08 08:07:34;;;;;;;17.75;8.82;;;10.80;91.80;;;;;;4853800;29;20081;-78
2021/11/08 08:10:00;;;;;;;12.35;7.38;;;10.90;91.90;;;;;;4838390;29;20101;-78
2021/11/08 08:12:27;;;;;;;33.35;9.98;;;11.00;91.20;;;;;;4833193;29;20230;-78
2021/11/08 08:14:53;;;;;;;16.48;7.10;;;11.10;91.10;;;;;;4821069;29;20041;-79
2021/11/08 08:17:18;;;;;;;12.27;6.18;;;11.10;90.40;;;;;;4878367;29;20037;-79
2021/11/08 08:19:46;;;;;;;13.23;6.57;;;11.00;90.20;;;;;;4837009;29;20063;-79
2021/11/08 08:22:11;;;;;;;;;;;11.10;90.40;;;;;;4867069;29;20065;-79
2021/11/08 08:24:37;;;;;;;9.67;6.50;;;11.00;90.10;;;;;;4851135;29;19916;-79
2021/11/08 08:27:04;;;;;;;11.73;6.13;;;11.10;90.30;;;;;;4837191;29;20324;-79
2021/11/08 08:29:34;;;;;;;10.70;5.97;;;11.10;90.20;;;;;;4846613;29;20453;-79
2021/11/08 08:32:00;;;;;;;19.02;6.70;;;11.00;90.00;;;;;;4846620;29;20084;-79
2021/11/08 08:34:29;;;;;;;12.45;6.60;;;11.10;89.70;;;;;;4865896;29;20297;-79
2021/11/08 08:36:56;;;;;;;10.13;5.85;;;11.00;90.00;;;;;;4866005;29;20041;-79
2021/11/08 08:39:23;;;;;;;14.32;6.35;;;11.00;90.00;;;;;;4862352;29;20041;-79
2021/11/08 08:41:50;;;;;;;14.35;5.25;;;11.00;89.70;;;;;;4837322;29;20408;-79
2021/11/08 08:44:17;;;;;;;9.40;4.90;;;11.00;88.90;;;;;;4853019;29;20345;-79
2021/11/08 08:46:44;;;;;;;11.00;5.03;;;11.00;89.00;;;;;;4850392;29;20065;-79
2021/11/08 08:49:11;;;;;;;;;;;11.00;88.90;;;;;;4851128;29;20045;-79
2021/11/08 08:51:37;;;;;;;13.85;5.35;;;11.00;86.30;;;;;;4850477;29;19916;-79
2021/11/08 08:54:04;;;;;;;11.97;4.57;;;11.10;87.90;;;;;;4875421;29;20064;-79
2021/11/08 08:56:30;;;;;;;;;;;11.20;87.40;;;;;;4866629;29;20053;-79
2021/11/08 08:58:56;;;;;;;13.87;4.67;;;11.30;86.20;;;;;;4849259;29;19912;-79
2021/11/08 09:01:25;;;;;;;12.05;4.50;;;11.50;85.80;;;;;;4867009;29;20130;-79
2021/11/08 09:03:54;;;;;;;9.18;4.72;;;11.60;84.40;;;;;;4864088;29;20053;-79
2021/11/08 09:06:20;;;;;;;7.90;3.70;;;11.70;84.20;;;;;;4867752;29;20042;-79
2021/11/08 09:08:46;;;;;;;9.60;4.15;;;11.90;82.70;;;;;;4838783;29;20406;-78
2021/11/08 09:11:12;;;;;;;11.75;4.50;;;12.10;81.90;;;;;;4850530;29;20030;-79
2021/11/08 09:13:38;;;;;;;10.02;3.75;;;12.30;81.70;;;;;;4848627;29;20230;-78
2021/11/08 09:16:11;;;;;;;10.82;3.42;;;12.40;78.90;;;;;;4835107;29;20058;-79
2021/11/08 09:18:38;;;;;;;9.38;3.20;;;12.60;78.60;;;;;;4834573;29;20214;-78
2021/11/08 09:21:04;;;;;;;9.57;3.35;;;12.80;78.20;;;;;;4851110;29;20041;-78
2021/11/08 09:23:30;;;;;;;7.50;2.80;;;12.80;76.10;;;;;;4866442;29;20032;-79
2021/11/08 09:25:56;;;;;;;7.55;2.60;;;12.90;73.50;;;;;;4835351;29;20083;-79
2021/11/08 09:28:21;;;;;;;11.15;2.90;;;12.90;73.10;;;;;;4809021;29;20034;-79
2021/11/08 09:30:47;;;;;;;6.68;2.08;;;13.10;72.60;;;;;;4832371;29;20082;-79
2021/11/08 09:33:13;;;;;;;7.18;2.40;;;13.10;69.70;;;;;;4851846;29;20041;-79
2021/11/08 09:35:46;;;;;;;7.82;2.95;;;13.10;69.90;;;;;;4839034;29;20150;-79
2021/11/08 09:38:12;;;;;;;6.40;2.10;;;13.10;69.40;;;;;;4835638;29;20259;-79
2021/11/08 09:40:40;;;;;;;14.75;2.75;;;13.10;68.40;;;;;;4842601;29;20037;-79
2021/11/08 09:43:09;;;;;;;6.38;2.08;;;13.10;67.80;;;;;;4882746;29;20033;-79
2021/11/08 09:45:35;;;;;;;8.43;2.45;;;13.00;68.20;;;;;;4881466;29;20233;-79
2021/11/08 09:48:03;;;;;;;10.98;2.38;;;12.90;68.00;;;;;;4848053;29;20116;-79
2021/11/08 09:50:31;;;;;;;7.07;1.70;;;12.90;67.70;;;;;;4866095;29;20229;-79
2021/11/08 09:52:59;;;;;;;7.45;2.13;;;12.70;67.70;;;;;;4884777;29;20021;-79
2021/11/08 09:55:25;;;;;;;5.65;2.10;;;12.70;69.30;;;;;;4884857;29;20068;-79
2021/11/08 09:57:53;;;;;;;6.78;2.55;;;12.60;68.20;;;;;;4852963;29;20034;-79
2021/11/08 10:00:24;;;;;;;11.35;2.58;;;12.50;69.10;;;;;;4836391;29;20034;-79
2021/11/08 10:03:00;;;;;;;11.10;2.63;;;12.50;70.10;;;;;;4868920;29;20077;-79
2021/11/08 10:05:30;;;;;;;8.27;2.38;;;12.70;69.30;;;;;;4851467;29;20049;-79
2021/11/08 10:07:58;;;;;;;8.07;2.42;;;12.60;69.00;;;;;;4870621;29;20310;-79
2021/11/08 10:10:25;;;;;;;11.82;2.45;;;12.60;68.70;;;;;;4854959;29;20332;-79
2021/11/08 10:13:02;;;;;;;12.45;2.30;;;12.50;69.10;;;;;;4870193;29;20351;-79
2021/11/08 10:15:28;;;;;;;6.85;2.45;;;12.60;69.40;;;;;;4867799;29;20344;-79
2021/11/08 10:17:54;;;;;;;8.20;2.55;;;12.50;69.80;;;;;;4833850;29;20030;-79
2021/11/08 10:20:39;;;;;;;8.27;3.00;;;12.50;70.00;;;;;;4855365;29;20033;-79
2021/11/08 10:23:06;;;;;;;8.05;2.50;;;12.80;69.30;;;;;;4850051;29;20034;-79
2021/11/08 10:25:33;;;;;;;;;;;12.70;68.70;;;;;;4870767;29;20040;-79
2021/11/08 10:28:00;;;;;;;11.95;2.80;;;12.70;68.80;;;;;;4872031;29;20188;-79
2021/11/08 10:30:30;;;;;;;10.23;2.67;;;12.60;70.20;;;;;;4865268;29;20071;-79
2021/11/08 10:33:09;;;;;;;7.75;2.45;;;12.50;70.30;;;;;;4868052;29;20104;-79
2021/11/08 10:35:49;;;;;;;7.43;2.55;;;12.40;70.40;;;;;;4881159;29;20324;-79
2021/11/08 10:38:21;;;;;;;10.35;2.90;;;12.40;70.40;;;;;;4854239;29;20029;-79
2021/11/08 10:40:55;;;;;;;10.95;2.70;;;12.50;70.30;;;;;;4881997;29;20108;-79
2021/11/08 10:43:54;;;;;;;11.30;2.83;;;12.80;70.40;;;;;;4868651;29;20026;-79
2021/11/08 10:46:21;;;;;;;23.08;3.72;;;12.90;69.40;;;;;;4852275;29;20055;-79
2021/11/08 10:48:51;;;;;;;10.20;3.20;;;12.80;69.20;;;;;;4853054;29;20351;-79
2021/11/08 10:51:22;;;;;;;11.50;2.85;;;12.90;69.60;;;;;;4853426;29;20044;-79
2021/11/08 10:54:03;;;;;;;10.77;3.47;;;12.90;69.00;;;;;;4837856;29;20085;-79
2021/11/08 10:56:33;;;;;;;9.77;2.70;;;13.00;69.70;;;;;;4853317;29;20037;-79
2021/11/08 10:59:02;;;;;;;13.85;3.47;;;13.00;69.70;;;;;;4850882;29;20156;-79
2021/11/08 11:01:33;;;;;;;13.63;2.72;;;13.10;69.50;;;;;;4851302;29;20044;-80
2021/11/08 11:04:02;;;;;;;9.80;3.83;;;13.10;69.20;;;;;;4848467;29;20353;-79
2021/11/08 11:06:44;;;;;;;10.82;2.88;;;13.20;69.50;;;;;;4866883;29;20074;-79
2021/11/08 11:09:20;;;;;;;12.40;3.08;;;13.20;69.50;;;;;;4852885;29;20300;-79
2021/11/08 11:12:07;;;;;;;10.68;2.65;;;13.30;69.60;;;;;;4851800;29;20037;-79
2021/11/08 11:14:38;;;;;;;8.38;2.88;;;13.40;68.30;;;;;;4849496;29;20030;-79
2021/11/08 11:17:07;;;;;;;7.20;3.03;;;13.50;69.20;;;;;;4836516;29;20038;-79
2021/11/08 11:19:34;;;;;;;11.60;3.60;;;13.40;68.20;;;;;;4845977;29;20059;-79
2021/11/08 11:22:03;;;;;;;5.10;2.45;;;13.40;68.20;;;;;;4847441;29;20040;-79
2021/11/08 11:24:46;;;;;;;8.82;2.60;;;13.40;67.50;;;;;;4882435;29;20088;-80
2021/11/08 11:27:30;;;;;;;6.55;2.53;;;13.50;67.20;;;;;;4851149;29;20029;-80
2021/11/08 11:30:23;;;;;;;11.60;2.42;;;13.50;66.00;;;;;;4868040;29;20043;-79
2021/11/08 11:33:14;;;;;;;8.85;2.92;;;13.30;66.00;;;;;;4879515;29;20021;-79
2021/11/08 11:35:54;;;;;;;8.18;2.70;;;13.20;67.90;;;;;;4864424;29;20029;-80
2021/11/08 11:38:24;;;;;;;8.90;2.22;;;13.20;67.50;;;;;;4863837;29;20029;-79
2021/11/08 11:41:01;;;;;;;6.97;2.58;;;13.20;67.20;;;;;;4863253;29;20044;-80
2021/11/08 11:43:36;;;;;;;10.60;3.35;;;13.20;67.70;;;;;;4881586;29;20033;-80
2021/11/08 11:46:06;;;;;;;8.27;2.40;;;13.30;67.90;;;;;;4877771;29;20049;-78
2021/11/08 11:48:34;;;;;;;9.73;2.20;;;13.20;67.20;;;;;;4862966;29;20074;-78
2021/11/08 11:51:00;;;;;;;6.80;2.92;;;13.10;67.50;;;;;;4849410;29;20064;-79
2021/11/08 11:53:27;;;;;;;7.88;3.20;;;13.10;67.50;;;;;;4882774;29;20038;-79
2021/11/08 11:55:54;;;;;;;9.48;3.38;;;13.10;67.60;;;;;;4853947;29;20037;-79
2021/11/08 11:58:20;;;;;;;6.70;2.28;;;13.00;67.20;;;;;;4881439;29;20086;-79
2021/11/08 12:00:49;;;;;;;9.40;2.70;;;13.10;67.70;;;;;;4836626;29;20037;-79
2021/11/08 12:03:15;;;;;;;8.73;2.50;;;13.10;67.80;;;;;;4866961;29;20207;-79
2021/11/08 12:05:45;;;;;;;9.95;2.75;;;13.20;68.00;;;;;;4866776;29;20037;-79
2021/11/08 12:08:13;;;;;;;10.32;2.58;;;13.20;67.70;;;;;;4869014;29;20117;-79
2021/11/08 12:10:51;;;;;;;8.77;2.72;;;13.00;66.50;;;;;;4853741;29;20033;-80
2021/11/08 12:13:23;;;;;;;5.05;2.38;;;12.90;67.10;;;;;;4865486;29;20030;-80
2021/11/08 12:15:50;;;;;;;9.45;2.75;;;12.90;67.20;;;;;;4865810;29;20298;-79
2021/11/08 12:18:17;;;;;;;;;;;12.90;67.10;;;;;;4855742;29;20061;-79
2021/11/08 12:20:54;;;;;;;9.65;2.40;;;12.90;66.80;;;;;;4857819;29;19908;-79
2021/11/08 12:23:38;;;;;;;6.63;2.55;;;12.80;67.00;;;;;;4846014;29;20038;-79
2021/11/08 12:26:15;;;;;;;9.77;2.50;;;12.70;67.20;;;;;;4866647;29;20108;-79
2021/11/08 12:28:40;;;;;;;11.10;2.70;;;12.70;67.90;;;;;;4869080;29;20220;-79
2021/11/08 12:31:08;;;;;;;6.63;2.65;;;12.70;67.70;;;;;;4834602;29;20038;-79
2021/11/08 12:33:41;;;;;;;9.15;3.17;;;12.80;67.50;;;;;;4831938;29;20065;-79
2021/11/08 12:36:06;;;;;;;6.40;3.20;;;12.80;67.70;;;;;;4853558;29;20021;-79
2021/11/08 12:38:35;;;;;;;11.98;3.75;;;12.80;67.70;;;;;;4868572;29;20033;-79
2021/11/08 12:41:12;;;;;;;9.65;2.72;;;12.90;68.30;;;;;;4881487;29;20038;-79
2021/11/08 12:43:56;;;;;;;6.63;2.78;;;12.80;67.20;;;;;;4871965;29;20255;-80
2021/11/08 12:46:33;;;;;;;7.10;2.80;;;12.80;66.40;;;;;;4878257;29;20390;-79
2021/11/08 12:49:09;;;;;;;7.05;3.13;;;12.70;67.20;;;;;;4861061;29;20093;-79
2021/11/08 12:51:36;;;;;;;8.23;3.33;;;12.60;67.30;;;;;;4881067;29;20104;-79
2021/11/08 12:54:14;;;;;;;7.53;2.83;;;12.70;67.80;;;;;;4861961;29;20030;-79
2021/11/08 12:56:44;;;;;;;9.18;2.50;;;12.70;67.20;;;;;;4866290;29;20225;-79
2021/11/08 12:59:26;;;;;;;9.07;2.75;;;12.80;67.40;;;;;;4846582;29;20052;-80
2021/11/08 13:01:56;;;;;;;8.77;3.25;;;12.80;67.60;;;;;;4865386;29;20074;-79
2021/11/08 13:04:32;;;;;;;10.05;3.22;;;12.70;67.40;;;;;;4847199;29;20217;-79
2021/11/08 13:07:07;;;;;;;11.85;3.03;;;12.70;68.10;;;;;;4862486;29;20046;-79
2021/11/08 13:09:41;;;;;;;9.93;3.30;;;12.80;68.30;;;;;;4852525;29;20037;-79
2021/11/08 13:12:14;;;;;;;5.82;2.63;;;12.90;68.40;;;;;;4864405;29;20386;-79
2021/11/08 13:14:39;;;;;;;8.60;3.08;;;13.00;67.80;;;;;;4868775;29;20021;-79
2021/11/08 13:17:20;;;;;;;10.23;3.13;;;13.00;67.90;;;;;;4858591;29;20040;-80
2021/11/08 13:19:50;;;;;;;8.25;3.00;;;13.00;68.00;;;;;;4864176;29;20097;-79
2021/11/08 13:22:27;;;;;;;9.38;2.90;;;13.10;67.70;;;;;;4866035;29;20041;-80
2021/11/08 13:25:14;;;;;;;6.93;2.88;;;13.20;67.60;;;;;;4877336;29;20286;-79
2021/11/08 13:27:46;;;;;;;11.52;3.38;;;13.40;67.70;;;;;;4868383;29;20022;-79
2021/11/08 13:30:13;;;;;;;8.63;2.88;;;13.50;67.30;;;;;;4875568;29;20037;-79
2021/11/08 13:32:39;;;;;;;12.30;2.88;;;13.40;66.10;;;;;;4866907;29;20025;-79
2021/11/08 13:35:25;;;;;;;10.23;3.25;;;13.30;66.50;;;;;;4837780;29;20018;-80
2021/11/08 13:38:09;;;;;;;8.27;3.10;;;13.30;66.40;;;;;;4869454;29;20330;-79
2021/11/08 13:40:49;;;;;;;8.93;3.00;;;13.20;66.70;;;;;;4869026;29;20113;-80
2021/11/08 13:43:21;;;;;;;7.20;2.55;;;13.20;66.70;;;;;;4869685;29;20037;-79
2021/11/08 13:45:53;;;;;;;9.88;3.35;;;13.00;67.80;;;;;;4880327;29;20049;-79
2021/11/08 13:48:26;;;;;;;8.55;3.10;;;12.90;67.60;;;;;;4860006;29;20181;-79
2021/11/08 13:50:54;;;;;;;11.40;3.28;;;12.90;68.30;;;;;;4869119;29;20046;-79
2021/11/08 13:53:29;;;;;;;10.68;3.53;;;12.90;68.50;;;;;;4869470;29;20181;-79
2021/11/08 13:55:57;;;;;;;8.38;3.58;;;12.80;68.70;;;;;;4869062;29;20105;-80
2021/11/08 13:58:23;;;;;;;8.75;3.47;;;12.80;68.70;;;;;;4869108;29;20151;-79
2021/11/08 14:00:50;;;;;;;11.13;3.72;;;12.80;68.40;;;;;;4845867;29;20038;-79
2021/11/08 14:03:17;;;;;;;8.10;3.50;;;12.70;68.70;;;;;;4840554;29;20061;-79
2021/11/08 14:05:47;;;;;;;;;;;12.70;69.10;;;;;;4887099;29;20109;-79
2021/11/08 14:08:20;;;;;;;8.68;3.33;;;12.70;69.00;;;;;;4866394;29;19985;-80
2021/11/08 14:10:57;;;;;;;8.35;3.60;;;12.80;69.40;;;;;;4882734;29;20068;-79
2021/11/08 14:13:38;;;;;;;9.30;4.28;;;12.70;69.50;;;;;;4878946;29;20335;-79
2021/11/08 14:16:10;;;;;;;9.45;3.58;;;12.70;69.50;;;;;;4862340;29;20029;-80
2021/11/08 14:18:37;;;;;;;8.40;3.42;;;12.60;69.40;;;;;;4867346;29;20081;-80
2021/11/08 14:21:07;;;;;;;10.15;3.33;;;12.50;69.80;;;;;;4869424;29;20313;-79
2021/11/08 14:23:36;;;;;;;5.93;3.17;;;12.50;70.20;;;;;;4866660;29;20259;-79
2021/11/08 14:26:09;;;;;;;10.00;3.35;;;12.40;70.20;;;;;;4863491;29;20105;-79
2021/11/08 14:28:35;;;;;;;12.85;3.70;;;12.40;70.40;;;;;;4837792;29;20054;-80
2021/11/08 14:31:00;;;;;;;10.07;3.50;;;12.40;70.60;;;;;;4832306;29;20045;-81
2021/11/08 14:33:28;;;;;;;11.35;4.20;;;12.50;70.80;;;;;;4878509;29;20313;-80
2021/11/08 14:35:54;;;;;;;12.23;4.55;;;12.50;70.80;;;;;;4863861;29;20030;-80
2021/11/08 14:38:45;;;;;;;13.38;4.18;;;12.50;70.80;;;;;;4858457;29;20076;-80
2021/11/08 14:41:11;;;;;;;17.52;3.80;;;12.40;70.50;;;;;;4852857;29;20029;-79
2021/11/08 14:43:38;;;;;;;12.30;3.83;;;12.40;70.80;;;;;;4868206;29;20033;-79
2021/11/08 14:46:07;;;;;;;19.20;4.15;;;12.40;70.90;;;;;;4870761;29;20056;-79
2021/11/08 14:48:38;;;;;;;10.32;4.07;;;12.40;71.00;;;;;;4868134;29;20026;-79
2021/11/08 14:51:09;;;;;;;13.13;4.72;;;12.40;70.80;;;;;;4868368;29;20044;-80
2021/11/08 14:53:37;;;;;;;19.38;4.75;;;12.40;70.90;;;;;;4868372;29;20053;-80
2021/11/08 14:56:18;;;;;;;22.55;4.85;;;12.40;71.00;;;;;;4837141;29;20048;-80
2021/11/08 14:59:05;;;;;;;17.88;5.65;;;12.30;71.20;;;;;;4862735;29;20033;-79
2021/11/08 15:01:31;;;;;;;;;;;12.20;71.30;;;;;;4867008;29;20038;-79
2021/11/08 15:04:15;;;;;;;13.35;4.60;;;12.20;71.60;;;;;;4868082;29;19918;-80
2021/11/08 15:06:57;;;;;;;12.15;3.88;;;12.10;71.80;;;;;;4867868;29;20029;-80
2021/11/08 15:09:24;;;;;;;14.95;3.35;;;12.10;72.60;;;;;;4868953;29;20037;-79
2021/11/08 15:11:51;;;;;;;13.98;3.15;;;12.10;72.10;;;;;;4877998;29;20442;-79
2021/11/08 15:14:19;;;;;;;8.63;2.92;;;12.10;72.20;;;;;;4864484;29;20045;-79
2021/11/08 15:16:53;;;;;;;17.17;3.28;;;12.10;72.30;;;;;;4868751;29;20053;-79
2021/11/08 15:19:21;;;;;;;13.90;3.95;;;12.10;72.40;;;;;;4863843;29;20029;-79
2021/11/08 15:21:50;;;;;;;11.85;3.50;;;12.10;72.20;;;;;;4874004;29;20059;-80
2021/11/08 15:24:16;;;;;;;10.10;3.03;;;12.10;72.50;;;;;;4866417;29;20338;-79
2021/11/08 15:26:48;;;;;;;12.82;3.28;;;12.00;72.40;;;;;;4871818;29;20099;-79
2021/11/08 15:29:21;;;;;;;8.50;3.55;;;12.00;72.10;;;;;;4860312;29;20037;-79
2021/11/08 15:31:48;;;;;;;9.65;3.85;;;12.00;72.30;;;;;;4844607;29;20052;-79
2021/11/08 15:34:14;;;;;;;6.37;3.63;;;11.90;72.40;;;;;;4842256;29;20094;-79
2021/11/08 15:36:54;;;;;;;10.43;4.10;;;11.90;72.90;;;;;;4865263;29;20029;-79
2021/11/08 15:39:29;;;;;;;11.07;4.15;;;11.90;72.40;;;;;;4871332;29;20077;-79
2021/11/08 15:42:02;;;;;;;9.88;3.65;;;11.90;72.40;;;;;;4853494;29;20061;-79
2021/11/08 15:44:29;;;;;;;7.20;3.60;;;11.90;72.40;;;;;;4868861;29;20060;-79
2021/11/08 15:46:57;;;;;;;11.85;3.70;;;11.90;72.50;;;;;;4837951;29;20069;-79
2021/11/08 15:49:23;;;;;;;16.75;4.00;;;11.80;72.60;;;;;;4871360;29;20266;-79
2021/11/08 15:51:50;;;;;;;9.17;4.03;;;11.80;72.60;;;;;;4856222;29;20224;-79
2021/11/08 15:54:21;;;;;;;15.10;4.45;;;11.80;72.70;;;;;;4856146;29;20302;-79
2021/11/08 15:56:48;;;;;;;31.30;6.72;;;11.70;72.80;;;;;;4829942;29;20101;-79
2021/11/08 15:59:14;;;;;;;12.83;5.07;;;11.70;73.30;;;;;;4842746;29;20042;-79
2021/11/08 16:01:42;;;;;;;18.42;5.80;;;11.70;73.40;;;;;;4846733;29;20490;-79
2021/11/08 16:04:08;;;;;;;10.05;4.25;;;11.60;73.70;;;;;;4831180;29;20078;-79
2021/11/08 16:06:35;;;;;;;18.90;5.27;;;11.60;74.00;;;;;;4849283;29;20334;-79
2021/11/08 16:09:01;;;;;;;26.35;5.65;;;11.50;74.00;;;;;;4853078;29;20282;-79
2021/11/08 16:11:28;;;;;;;14.60;4.55;;;11.50;74.00;;;;;;4852794;29;20056;-79
2021/11/08 16:13:54;;;;;;;18.00;4.07;;;11.40;74.20;;;;;;4848237;29;20273;-79
2021/11/08 16:16:20;;;;;;;14.15;4.05;;;11.40;74.30;;;;;;4831430;29;20306;-79
2021/11/08 16:18:47;;;;;;;17.13;4.97;;;11.30;74.50;;;;;;4860926;29;20045;-79
2021/11/08 16:21:15;;;;;;;14.10;3.72;;;11.30;74.40;;;;;;4868214;29;20051;-79
2021/11/08 16:23:41;;;;;;;16.73;6.63;;;11.20;74.40;;;;;;4848155;29;20037;-79
2021/11/08 16:26:07;;;;;;;14.15;4.20;;;11.10;75.10;;;;;;4863202;29;20263;-79
2021/11/08 16:28:33;;;;;;;10.98;3.78;;;11.10;74.50;;;;;;4851360;29;20048;-79
2021/11/08 16:31:04;;;;;;;13.55;4.45;;;11.00;74.70;;;;;;4868169;29;20040;-79
2021/11/08 16:33:45;;;;;;;13.45;4.88;;;10.90;74.80;;;;;;4875145;29;20033;-79
2021/11/08 16:36:14;;;;;;;13.88;5.85;;;10.80;75.00;;;;;;4865114;29;20029;-79
2021/11/08 16:38:42;;;;;;;16.80;4.40;;;10.70;75.30;;;;;;4851563;29;20405;-79
2021/11/08 16:41:10;;;;;;;14.35;4.55;;;10.70;75.30;;;;;;4874360;29;20117;-79
2021/11/08 16:43:35;;;;;;;15.25;4.60;;;10.60;75.50;;;;;;4876290;29;20068;-79
2021/11/08 16:46:05;;;;;;;8.38;3.45;;;10.60;75.80;;;;;;4877472;29;20273;-79
2021/11/08 16:48:35;;;;;;;9.40;3.28;;;10.50;76.00;;;;;;4867706;29;20030;-79
2021/11/08 16:51:01;;;;;;;9.90;3.20;;;10.40;76.20;;;;;;4846487;29;20130;-79
2021/11/08 16:53:29;;;;;;;10.85;3.00;;;10.40;76.10;;;;;;4851403;29;20101;-79
2021/11/08 16:55:56;;;;;;;6.70;2.80;;;10.40;76.30;;;;;;4845767;29;20056;-79
2021/11/08 16:58:22;;;;;;;8.15;2.28;;;10.40;76.40;;;;;;4864753;29;20038;-79
2021/11/08 17:00:51;;;;;;;9.40;3.13;;;10.30;76.50;;;;;;4830403;29;20326;-79
2021/11/08 17:03:21;;;;;;;10.13;3.38;;;10.30;76.60;;;;;;4867051;29;20093;-79
2021/11/08 17:05:51;;;;;;;12.57;3.17;;;10.30;77.50;;;;;;4860718;29;20381;-79
2021/11/08 17:13:34;;;;;;;10.07;2.88;;;10.20;77.30;;;;;;4854213;29;20322;-79
2021/11/08 17:16:02;;;;;;;9.93;3.10;;;10.20;77.50;;;;;;4820550;29;20044;-79
2021/11/08 17:18:28;;;;;;;13.30;3.10;;;10.20;77.80;;;;;;4873882;29;20104;-78
2021/11/08 17:21:01;;;;;;;12.93;4.85;;;10.10;77.90;;;;;;4862090;29;20040;-79
2021/11/08 17:23:33;;;;;;;17.65;3.58;;;10.10;78.20;;;;;;4857636;29;20030;-79
2021/11/08 17:25:59;;;;;;;16.55;3.85;;;10.10;78.50;;;;;;4858081;29;20052;-79
2021/11/08 17:28:25;;;;;;;16.77;3.77;;;10.00;78.90;;;;;;4869165;29;20221;-79
2021/11/08 17:30:51;;;;;;;10.45;3.60;;;10.00;79.10;;;;;;4882852;29;20074;-79
2021/11/08 17:33:17;;;;;;;9.60;3.45;;;10.00;79.10;;;;;;4833141;29;20352;-79
2021/11/08 17:35:43;;;;;;;9.38;3.38;;;10.00;79.20;;;;;;4844947;29;20053;-79
2021/11/08 17:38:10;;;;;;;25.85;5.55;;;9.90;79.10;;;;;;4867820;29;20213;-79
2021/11/08 17:40:37;;;;;;;12.68;4.50;;;9.90;79.30;;;;;;4882783;29;20051;-79
2021/11/08 17:43:04;;;;;;;16.58;5.60;;;9.80;79.50;;;;;;4860213;29;20096;-79
2021/11/08 17:45:31;;;;;;;13.40;4.75;;;9.70;79.70;;;;;;4878301;29;20386;-79
2021/11/08 17:47:58;;;;;;;;;;;9.60;79.90;;;;;;4861254;29;20352;-79
2021/11/08 17:50:25;;;;;;;12.50;3.97;;;9.50;80.00;;;;;;4872149;29;19912;-79
2021/11/08 17:52:52;;;;;;;12.07;3.70;;;9.40;80.40;;;;;;4851309;29;20334;-79
2021/11/08 17:55:23;;;;;;;15.60;3.67;;;9.30;80.80;;;;;;4866923;29;20384;-79
2021/11/08 17:57:52;;;;;;;11.60;3.60;;;9.20;81.30;;;;;;4866368;29;20036;-79
2021/11/08 18:00:19;;;;;;;8.00;3.83;;;9.20;81.40;;;;;;4878894;29;20045;-79
2021/11/08 18:02:46;;;;;;;11.15;3.33;;;9.10;81.40;;;;;;4852422;29;20037;-79
2021/11/08 18:05:13;;;;;;;10.65;3.20;;;9.10;81.40;;;;;;4849738;29;20078;-78
2021/11/08 18:07:41;;;;;;;7.57;2.93;;;9.10;81.50;;;;;;4847316;29;20105;-79
2021/11/08 18:10:11;;;;;;;12.23;4.00;;;9.00;81.40;;;;;;4841832;29;20282;-79
2021/11/08 18:12:37;;;;;;;11.23;3.72;;;8.90;81.40;;;;;;4853978;29;20113;-79
2021/11/08 18:15:04;;;;;;;6.95;3.03;;;8.90;81.80;;;;;;4839432;29;20049;-79
2021/11/08 18:17:32;;;;;;;9.38;3.85;;;8.80;82.00;;;;;;4878326;29;20050;-79
2021/11/08 18:20:01;;;;;;;8.02;3.90;;;8.70;82.00;;;;;;4821204;29;20041;-80
2021/11/08 18:22:58;;;;;;;14.57;5.13;;;8.60;82.10;;;;;;4848523;29;20076;-79
2021/11/08 18:27:50;;;;;;;9.93;3.70;;;8.40;82.90;;;;;;4857747;29;20098;-79
2021/11/08 18:30:17;;;;;;;13.05;4.68;;;8.30;83.20;;;;;;4842645;29;20042;-79
2021/11/08 18:32:46;;;;;;;8.73;3.37;;;8.20;83.70;;;;;;4868258;29;20036;-79
2021/11/08 18:35:13;;;;;;;9.15;4.15;;;8.10;84.00;;;;;;4867065;29;20029;-79